createdAt,value
2022-12-29T00:01:56.568Z,12.01
2022-12-29T00:04:23.170Z,11.97
2022-12-29T00:06:49.642Z,12.35
2022-12-29T00:09:17.418Z,12.13
2022-12-29T00:11:44.094Z,12.39
2022-12-29T00:14:30.286Z,11.91
2022-12-29T00:16:57.337Z,12.00
2022-12-29T00:19:42.899Z,12.05
2022-12-29T00:22:32.768Z,12.54
2022-12-29T00:25:02.871Z,12.37
2022-12-29T00:27:49.360Z,12.49
2022-12-29T00:30:38.452Z,12.23
2022-12-29T00:33:30.502Z,12.24
2022-12-29T00:36:20.140Z,12.63
2022-12-29T00:39:15.260Z,12.03
2022-12-29T00:42:00.583Z,12.32
2022-12-29T00:44:27.024Z,12.14
2022-12-29T00:46:53.566Z,12.40
2022-12-29T00:49:31.912Z,12.40
2022-12-29T00:52:08.893Z,12.21
2022-12-29T00:54:37.585Z,11.70
2022-12-29T00:57:06.429Z,12.12
2022-12-29T00:59:36.224Z,11.98
2022-12-29T01:02:02.847Z,12.74
2022-12-29T01:04:29.370Z,12.96
2022-12-29T01:06:55.847Z,12.87
2022-12-29T01:09:41.226Z,12.66
2022-12-29T01:12:09.095Z,12.82
2022-12-29T01:14:35.737Z,12.83
2022-12-29T01:17:02.192Z,12.53
2022-12-29T01:19:28.637Z,12.91
2022-12-29T01:21:55.096Z,12.82
2022-12-29T01:24:22.431Z,12.51
2022-12-29T01:26:49.507Z,12.77
2022-12-29T01:29:16.350Z,12.34
2022-12-29T01:31:43.800Z,12.32
2022-12-29T01:34:10.318Z,12.53
2022-12-29T01:36:36.870Z,12.78
2022-12-29T01:39:03.440Z,12.39
2022-12-29T01:41:30.075Z,12.72
2022-12-29T01:44:01.997Z,12.78
2022-12-29T01:46:39.150Z,12.82
2022-12-29T01:49:22.888Z,12.63
2022-12-29T01:51:59.458Z,12.63
2022-12-29T01:54:41.216Z,12.31
2022-12-29T01:57:13.608Z,12.64
2022-12-29T01:59:46.869Z,12.28
2022-12-29T02:02:13.499Z,12.63
2022-12-29T02:04:46.758Z,12.50
2022-12-29T02:07:19.452Z,12.73
2022-12-29T02:09:50.203Z,12.58
2022-12-29T02:12:19.119Z,12.51
2022-12-29T02:14:46.356Z,12.28
2022-12-29T02:17:22.785Z,12.43
2022-12-29T02:20:04.509Z,12.01
2022-12-29T02:22:43.095Z,12.01
2022-12-29T02:25:38.043Z,12.26
2022-12-29T02:28:10.572Z,12.36
2022-12-29T02:30:55.760Z,11.94
2022-12-29T02:33:38.861Z,12.01
2022-12-29T02:36:20.963Z,11.76
2022-12-29T02:39:06.235Z,11.93
2022-12-29T02:41:59.388Z,12.18
2022-12-29T02:44:47.327Z,12.29
2022-12-29T02:47:29.088Z,12.19
2022-12-29T02:50:20.264Z,12.16
2022-12-29T02:52:58.201Z,11.99
2022-12-29T02:55:24.701Z,12.12
2022-12-29T02:58:17.968Z,11.88
2022-12-29T03:01:03.303Z,12.31
2022-12-29T03:03:40.411Z,12.50
2022-12-29T03:06:28.427Z,12.39
2022-12-29T03:09:18.873Z,12.45
2022-12-29T03:12:15.858Z,12.45
2022-12-29T03:15:25.232Z,12.39
2022-12-29T03:18:03.412Z,12.39
2022-12-29T03:20:39.750Z,12.51
2022-12-29T03:23:07.761Z,12.54
2022-12-29T03:25:41.166Z,12.61
2022-12-29T03:28:11.797Z,12.86
2022-12-29T03:30:40.694Z,12.91
2022-12-29T03:33:13.256Z,12.61
2022-12-29T03:35:44.565Z,12.74
2022-12-29T03:38:24.234Z,13.03
2022-12-29T03:40:57.747Z,12.97
2022-12-29T03:43:24.499Z,12.91
2022-12-29T03:45:51.045Z,13.06
2022-12-29T03:48:17.573Z,12.79
2022-12-29T03:50:44.719Z,12.98
2022-12-29T03:53:11.314Z,12.91
2022-12-29T03:55:37.755Z,12.79
2022-12-29T03:58:04.172Z,12.99
2022-12-29T04:00:30.602Z,12.64
2022-12-29T04:02:57.161Z,12.67
2022-12-29T04:05:23.787Z,12.79
2022-12-29T04:07:50.226Z,12.97
2022-12-29T04:10:16.708Z,12.98
2022-12-29T04:12:43.188Z,12.68
2022-12-29T04:15:10.643Z,13.09
2022-12-29T04:17:37.106Z,12.92
2022-12-29T04:20:22.530Z,13.32
2022-12-29T04:22:48.997Z,12.85
2022-12-29T04:25:15.517Z,12.80
2022-12-29T04:27:41.899Z,13.07
2022-12-29T04:30:09.132Z,12.70
2022-12-29T04:32:35.584Z,12.88
2022-12-29T04:35:02.004Z,12.87
2022-12-29T04:37:28.417Z,12.69
2022-12-29T04:39:54.841Z,12.73
2022-12-29T04:42:21.358Z,13.17
2022-12-29T04:44:47.834Z,13.19
2022-12-29T04:47:14.323Z,12.82
2022-12-29T04:49:40.806Z,12.81
2022-12-29T04:52:09.256Z,13.06
2022-12-29T04:54:35.794Z,13.23
2022-12-29T04:57:02.238Z,13.19
2022-12-29T04:59:28.716Z,13.22
2022-12-29T05:01:55.241Z,13.13
2022-12-29T05:04:21.720Z,13.31
2022-12-29T05:06:48.759Z,13.19
2022-12-29T05:09:15.194Z,13.39
2022-12-29T05:11:41.690Z,13.74
2022-12-29T05:14:08.119Z,12.99
2022-12-29T05:16:34.544Z,13.29
2022-12-29T05:19:01.052Z,13.50
2022-12-29T05:21:27.553Z,13.29
2022-12-29T05:23:54.643Z,13.63
2022-12-29T05:26:21.122Z,13.45
2022-12-29T05:28:47.537Z,13.40
2022-12-29T05:31:14.176Z,13.32
2022-12-29T05:33:40.661Z,13.43
2022-12-29T05:36:09.399Z,13.35
2022-12-29T05:38:35.954Z,13.48
2022-12-29T05:41:02.400Z,13.38
2022-12-29T05:43:28.868Z,12.99
2022-12-29T05:45:55.969Z,13.25
2022-12-29T05:48:22.461Z,12.89
2022-12-29T05:50:49.814Z,13.24
2022-12-29T05:53:16.341Z,13.17
2022-12-29T05:55:48.547Z,13.36
2022-12-29T05:58:16.279Z,13.38
2022-12-29T06:00:44.079Z,13.38
2022-12-29T06:03:10.640Z,13.52
2022-12-29T06:05:37.523Z,13.51
2022-12-29T06:08:04.272Z,13.37
2022-12-29T06:10:30.773Z,13.15
2022-12-29T06:12:57.228Z,13.27
2022-12-29T06:15:23.656Z,12.99
2022-12-29T06:17:50.058Z,13.58
2022-12-29T06:20:16.974Z,13.45
2022-12-29T06:22:43.945Z,13.04
2022-12-29T06:25:10.529Z,13.43
2022-12-29T06:27:36.961Z,13.48
2022-12-29T06:30:04.297Z,13.32
2022-12-29T06:32:30.797Z,13.30
2022-12-29T06:34:57.224Z,13.38
2022-12-29T06:37:23.653Z,13.34
2022-12-29T06:39:50.038Z,13.45
2022-12-29T06:42:16.561Z,13.46
2022-12-29T06:44:42.978Z,13.11
2022-12-29T06:47:09.422Z,13.19
2022-12-29T06:49:35.884Z,13.72
2022-12-29T06:52:09.051Z,13.36
2022-12-29T06:54:39.085Z,12.88
2022-12-29T06:57:05.510Z,13.40
2022-12-29T06:59:31.943Z,13.59
2022-12-29T07:01:58.514Z,13.22
2022-12-29T07:04:25.122Z,13.24
2022-12-29T07:06:51.612Z,13.48
2022-12-29T07:09:18.097Z,13.78
2022-12-29T07:11:44.553Z,13.21
2022-12-29T07:14:12.290Z,13.59
2022-12-29T07:16:39.326Z,13.50
2022-12-29T07:19:06.010Z,13.49
2022-12-29T07:21:32.522Z,13.62
2022-12-29T07:23:58.918Z,13.68
2022-12-29T07:26:25.359Z,13.56
2022-12-29T07:28:52.033Z,13.65
2022-12-29T07:31:21.712Z,13.65
2022-12-29T07:33:48.734Z,13.90
2022-12-29T07:36:15.970Z,13.74
2022-12-29T07:38:43.359Z,13.56
2022-12-29T07:41:10.085Z,13.70
2022-12-29T07:43:36.734Z,13.55
2022-12-29T07:46:03.281Z,14.12
2022-12-29T07:48:29.777Z,13.48
2022-12-29T07:50:56.243Z,13.65
2022-12-29T07:53:22.687Z,13.57
2022-12-29T07:55:49.124Z,13.96
2022-12-29T07:58:15.549Z,13.71
2022-12-29T08:00:41.961Z,13.82
2022-12-29T08:03:08.391Z,13.97
2022-12-29T08:05:35.414Z,13.62
2022-12-29T08:08:01.890Z,13.79
2022-12-29T08:10:28.462Z,13.89
2022-12-29T08:12:55.062Z,14.43
2022-12-29T08:15:24.414Z,14.45
2022-12-29T08:17:53.626Z,13.54
2022-12-29T08:20:20.036Z,14.41
2022-12-29T08:22:46.486Z,14.48
2022-12-29T08:25:12.954Z,14.60
2022-12-29T08:27:39.542Z,15.17
2022-12-29T08:30:06.629Z,13.68
2022-12-29T08:32:33.136Z,14.42
2022-12-29T08:34:59.545Z,14.33
2022-12-29T08:37:30.912Z,14.15
2022-12-29T08:39:58.734Z,13.78
2022-12-29T08:42:29.816Z,14.20
2022-12-29T08:44:56.236Z,13.95
2022-12-29T08:47:22.638Z,13.75
2022-12-29T08:49:49.090Z,14.46
2022-12-29T08:52:15.518Z,14.46
2022-12-29T08:54:41.931Z,14.54
2022-12-29T08:57:08.441Z,14.13
2022-12-29T08:59:36.008Z,14.14
2022-12-29T09:02:02.907Z,14.62
2022-12-29T09:04:29.605Z,14.50
2022-12-29T09:06:56.220Z,13.87
2022-12-29T09:09:22.729Z,14.24
2022-12-29T09:11:49.159Z,14.21
2022-12-29T09:14:15.626Z,14.10
2022-12-29T09:17:01.048Z,14.01
2022-12-29T09:19:27.534Z,14.27
2022-12-29T09:21:53.987Z,14.61
2022-12-29T09:24:20.388Z,14.32
2022-12-29T09:26:47.169Z,13.48
2022-12-29T09:29:13.733Z,13.57
2022-12-29T09:31:40.290Z,13.64
2022-12-29T09:34:06.811Z,13.92
2022-12-29T09:36:33.198Z,13.69
2022-12-29T09:38:59.631Z,13.58
2022-12-29T09:41:36.684Z,13.32
2022-12-29T09:44:11.854Z,13.98
2022-12-29T09:46:42.532Z,13.45
2022-12-29T09:49:42.030Z,13.79
2022-12-29T09:52:16.377Z,12.97
2022-12-29T09:55:02.965Z,13.13
2022-12-29T09:57:37.119Z,13.32
2022-12-29T10:00:12.317Z,13.37
2022-12-29T10:02:54.405Z,13.55
2022-12-29T10:05:30.127Z,13.81
2022-12-29T10:08:05.460Z,14.21
2022-12-29T10:11:13.232Z,13.42
2022-12-29T10:14:16.033Z,13.33
2022-12-29T10:16:54.941Z,13.49
2022-12-29T10:19:37.842Z,13.14
2022-12-29T10:22:16.306Z,14.18
2022-12-29T10:24:45.342Z,14.21
2022-12-29T10:27:14.635Z,14.11
2022-12-29T10:30:03.522Z,13.70
2022-12-29T10:32:44.112Z,14.28
2022-12-29T10:35:30.750Z,14.43
2022-12-29T10:38:19.502Z,14.50
2022-12-29T10:41:04.337Z,14.75
2022-12-29T10:43:36.569Z,14.23
2022-12-29T10:46:12.802Z,14.23
2022-12-29T10:48:39.749Z,14.73
2022-12-29T10:51:47.479Z,14.68
2022-12-29T10:54:19.197Z,14.70
2022-12-29T10:56:53.262Z,14.68
2022-12-29T10:59:25.567Z,14.36
2022-12-29T11:02:13.288Z,14.23
2022-12-29T11:05:03.053Z,14.26
2022-12-29T11:07:31.053Z,13.91
2022-12-29T11:10:20.959Z,14.08
2022-12-29T11:13:19.134Z,13.43
2022-12-29T11:15:49.002Z,13.76
2022-12-29T11:18:23.242Z,14.23
2022-12-29T11:21:01.626Z,14.71
2022-12-29T11:23:40.143Z,14.56
2022-12-29T11:26:21.078Z,14.87
2022-12-29T11:29:04.795Z,14.60
2022-12-29T11:31:31.265Z,14.49
2022-12-29T11:33:57.728Z,14.40
2022-12-29T11:36:25.495Z,14.19
2022-12-29T11:38:54.454Z,13.91
2022-12-29T11:41:24.716Z,14.50
2022-12-29T11:43:52.432Z,14.51
2022-12-29T11:46:34.630Z,14.02
2022-12-29T11:49:03.031Z,14.01
2022-12-29T11:51:35.542Z,13.96
2022-12-29T11:54:05.098Z,14.00
2022-12-29T11:56:43.284Z,13.55
2022-12-29T11:59:27.820Z,12.93
2022-12-29T12:01:55.495Z,12.86
2022-12-29T12:04:27.308Z,12.78
2022-12-29T12:07:09.586Z,12.81
2022-12-29T12:09:42.037Z,12.92
2022-12-29T12:12:15.068Z,13.65
2022-12-29T12:14:57.501Z,13.08
2022-12-29T12:17:52.601Z,12.88
2022-12-29T12:20:44.600Z,12.68
2022-12-29T12:23:47.984Z,13.24
2022-12-29T12:26:29.043Z,13.03
2022-12-29T12:29:02.105Z,12.71
2022-12-29T12:31:50.082Z,12.25
2022-12-29T12:34:28.950Z,13.14
2022-12-29T12:37:20.043Z,13.36
2022-12-29T12:40:23.950Z,12.98
2022-12-29T12:42:56.485Z,13.43
2022-12-29T12:45:29.187Z,13.05
2022-12-29T12:48:40.363Z,12.45
2022-12-29T12:51:12.911Z,12.62
2022-12-29T12:53:58.604Z,12.70
2022-12-29T12:56:24.966Z,12.66
2022-12-29T12:59:07.234Z,13.31
2022-12-29T13:01:54.486Z,13.67
2022-12-29T13:04:37.664Z,13.90
2022-12-29T13:07:28.262Z,13.09
2022-12-29T13:10:17.943Z,13.82
2022-12-29T13:13:03.090Z,13.63
2022-12-29T13:15:41.721Z,13.57
2022-12-29T13:18:19.902Z,13.84
2022-12-29T13:21:14.652Z,13.58
2022-12-29T13:24:21.201Z,13.23
2022-12-29T13:26:55.727Z,13.23
2022-12-29T13:29:37.003Z,13.42
2022-12-29T13:32:35.959Z,13.89
2022-12-29T13:35:08.301Z,13.63
2022-12-29T13:37:44.844Z,13.40
2022-12-29T13:40:16.955Z,13.91
2022-12-29T13:42:44.432Z,13.62
2022-12-29T13:45:16.973Z,13.66
2022-12-29T13:47:49.895Z,13.98
2022-12-29T13:50:19.974Z,13.41
2022-12-29T13:53:28.347Z,13.73
2022-12-29T13:56:16.035Z,13.82
2022-12-29T13:58:45.150Z,13.93
2022-12-29T14:01:14.707Z,13.46
2022-12-29T14:03:51.971Z,13.97
2022-12-29T14:06:26.286Z,13.90
2022-12-29T14:09:04.697Z,13.14
2022-12-29T14:11:40.218Z,13.58
2022-12-29T14:14:21.106Z,13.71
2022-12-29T14:16:48.058Z,13.60
2022-12-29T14:19:24.176Z,13.61
2022-12-29T14:22:03.187Z,13.19
2022-12-29T14:24:32.418Z,12.58
2022-12-29T14:26:58.871Z,12.96
2022-12-29T14:29:25.263Z,13.65
2022-12-29T14:31:53.699Z,13.19
2022-12-29T14:34:23.009Z,13.61
2022-12-29T14:37:02.465Z,13.13
2022-12-29T14:39:43.483Z,13.32
2022-12-29T14:42:09.827Z,13.50
2022-12-29T14:44:53.311Z,13.34
2022-12-29T14:47:50.575Z,13.33
2022-12-29T14:50:20.628Z,12.94
2022-12-29T14:53:00.091Z,13.40
2022-12-29T14:55:44.479Z,13.33
2022-12-29T14:58:22.015Z,13.89
2022-12-29T15:00:49.001Z,13.55
2022-12-29T15:03:22.321Z,13.30
2022-12-29T15:05:56.799Z,12.88
2022-12-29T15:08:33.076Z,13.34
2022-12-29T15:11:05.637Z,13.58
2022-12-29T15:13:38.320Z,13.39
2022-12-29T15:16:05.586Z,13.35
2022-12-29T15:18:34.117Z,13.06
2022-12-29T15:21:06.312Z,13.36
2022-12-29T15:23:35.389Z,12.82
2022-12-29T15:26:06.142Z,12.96
2022-12-29T15:28:42.732Z,13.36
2022-12-29T15:31:16.699Z,13.09
2022-12-29T15:33:48.175Z,13.52
2022-12-29T15:36:19.857Z,13.12
2022-12-29T15:38:47.452Z,13.22
2022-12-29T15:41:21.955Z,12.99
2022-12-29T15:43:58.169Z,13.13
2022-12-29T15:46:24.929Z,12.87
2022-12-29T15:48:51.492Z,13.25
2022-12-29T15:51:20.693Z,13.43
2022-12-29T15:53:52.042Z,13.50
2022-12-29T15:56:19.233Z,12.79
2022-12-29T15:58:51.755Z,13.16
2022-12-29T16:01:24.637Z,13.14
2022-12-29T16:03:53.068Z,13.35
2022-12-29T16:06:30.403Z,13.42
2022-12-29T16:09:03.459Z,13.18
2022-12-29T16:11:37.981Z,13.38
2022-12-29T16:14:10.844Z,13.62
2022-12-29T16:16:40.644Z,13.13
2022-12-29T16:19:33.628Z,13.18
2022-12-29T16:22:03.342Z,13.61
2022-12-29T16:24:33.918Z,12.94
2022-12-29T16:27:09.249Z,12.50
2022-12-29T16:29:36.309Z,12.67
2022-12-29T16:32:06.329Z,12.64
2022-12-29T16:34:43.885Z,12.86
2022-12-29T16:37:33.403Z,11.96
2022-12-29T16:40:18.436Z,12.23
2022-12-29T16:42:51.014Z,12.45
2022-12-29T16:45:21.501Z,12.38
2022-12-29T16:48:09.658Z,12.58
2022-12-29T16:50:38.765Z,12.23
2022-12-29T16:53:08.067Z,12.21
2022-12-29T16:55:34.557Z,12.51
2022-12-29T16:58:01.370Z,12.50
2022-12-29T17:00:33.338Z,12.69
2022-12-29T17:03:01.654Z,12.74
2022-12-29T17:05:28.409Z,11.90
2022-12-29T17:07:55.880Z,12.11
2022-12-29T17:10:42.259Z,12.47
2022-12-29T17:13:09.139Z,11.79
2022-12-29T17:15:35.762Z,12.49
2022-12-29T17:18:02.305Z,12.50
2022-12-29T17:20:30.710Z,12.56
2022-12-29T17:22:58.830Z,12.38
2022-12-29T17:25:37.303Z,12.52
2022-12-29T17:28:33.389Z,11.64
2022-12-29T17:31:02.978Z,12.81
2022-12-29T17:33:35.469Z,12.98
2022-12-29T17:36:01.933Z,12.72
2022-12-29T17:38:35.866Z,12.12
2022-12-29T17:41:02.360Z,11.98
2022-12-29T17:43:34.771Z,12.85
2022-12-29T17:46:06.528Z,12.68
2022-12-29T17:48:33.912Z,12.91
2022-12-29T17:51:00.568Z,13.15
2022-12-29T17:53:29.868Z,13.05
2022-12-29T17:55:56.573Z,13.06
2022-12-29T17:58:25.686Z,13.18
2022-12-29T18:00:55.785Z,13.07
2022-12-29T18:03:42.582Z,12.74
2022-12-29T18:06:12.161Z,12.83
2022-12-29T18:08:40.396Z,12.47
2022-12-29T18:11:21.102Z,12.82
2022-12-29T18:13:47.529Z,12.67
2022-12-29T18:16:14.712Z,11.88
2022-12-29T18:18:41.301Z,12.07
2022-12-29T18:21:15.930Z,12.17
2022-12-29T18:23:42.424Z,12.34
2022-12-29T18:26:11.843Z,12.19
2022-12-29T18:28:38.292Z,11.96
2022-12-29T18:31:17.005Z,12.57
2022-12-29T18:33:43.505Z,12.77
2022-12-29T18:36:12.203Z,12.17
2022-12-29T18:38:38.668Z,12.44
2022-12-29T18:41:05.213Z,12.67
2022-12-29T18:43:31.630Z,12.60
2022-12-29T18:45:58.138Z,12.43
2022-12-29T18:48:24.523Z,12.55
2022-12-29T18:50:51.839Z,12.63
2022-12-29T18:53:21.215Z,12.92
2022-12-29T18:55:47.714Z,12.92
2022-12-29T18:58:14.568Z,12.59
2022-12-29T19:00:41.344Z,12.59
2022-12-29T19:03:07.921Z,11.92
2022-12-29T19:05:39.415Z,12.63
2022-12-29T19:08:07.148Z,12.36
2022-12-29T19:10:34.261Z,12.52
2022-12-29T19:13:01.115Z,12.65
2022-12-29T19:15:35.947Z,12.67
2022-12-29T19:20:52.164Z,12.42
2022-12-29T19:23:21.146Z,12.73
2022-12-29T19:25:49.210Z,12.41
2022-12-29T19:28:21.552Z,12.50
2022-12-29T19:30:52.137Z,12.22
2022-12-29T19:33:23.396Z,12.55
2022-12-29T19:35:50.798Z,12.43
2022-12-29T19:38:17.830Z,11.60
2022-12-29T19:40:48.127Z,12.75
2022-12-29T19:43:15.227Z,12.19
2022-12-29T19:45:43.621Z,12.69
2022-12-29T19:48:15.787Z,12.68
2022-12-29T19:50:43.322Z,12.75
2022-12-29T19:53:09.832Z,12.40
2022-12-29T19:55:36.266Z,12.82
2022-12-29T19:58:02.796Z,12.76
2022-12-29T20:00:29.304Z,12.80
2022-12-29T20:02:55.888Z,12.53
2022-12-29T20:05:22.659Z,11.73
2022-12-29T20:07:49.094Z,12.60
2022-12-29T20:10:15.585Z,12.05
2022-12-29T20:12:42.159Z,12.53
2022-12-29T20:15:11.020Z,12.19
2022-12-29T20:20:24.008Z,12.55
2022-12-29T20:22:50.546Z,12.24
2022-12-29T20:28:03.696Z,12.25
2022-12-29T20:30:30.135Z,12.00
2022-12-29T20:32:56.569Z,12.08
2022-12-29T20:35:23.101Z,11.77
2022-12-29T20:37:49.737Z,11.72
2022-12-29T20:40:16.182Z,12.16
2022-12-29T20:42:59.592Z,12.12
2022-12-29T20:45:26.305Z,11.59
2022-12-29T20:47:52.945Z,11.61
2022-12-29T20:50:19.416Z,11.57
2022-12-29T20:52:46.719Z,11.85
2022-12-29T20:55:13.207Z,12.07
2022-12-29T20:58:21.525Z,11.63
2022-12-29T21:00:26.257Z,11.03
2022-12-29T21:02:53.053Z,11.37
2022-12-29T21:05:24.456Z,11.08
2022-12-29T21:07:51.962Z,11.24
2022-12-29T21:10:18.588Z,11.48
2022-12-29T21:12:45.127Z,11.40
2022-12-29T21:15:11.732Z,11.01
2022-12-29T21:17:38.132Z,11.33
2022-12-29T21:20:04.846Z,10.91
2022-12-29T21:22:31.236Z,11.03
2022-12-29T21:24:57.665Z,10.95
2022-12-29T21:27:24.161Z,10.76
2022-12-29T21:29:50.655Z,11.04
2022-12-29T21:32:17.087Z,11.58
2022-12-29T21:34:43.492Z,11.40
2022-12-29T21:37:09.931Z,11.13
2022-12-29T21:39:36.369Z,10.87
2022-12-29T21:42:02.786Z,11.44
2022-12-29T21:44:48.044Z,11.82
2022-12-29T21:47:14.486Z,10.95
2022-12-29T21:49:40.905Z,11.05
2022-12-29T21:52:07.355Z,11.35
2022-12-29T21:54:52.407Z,11.27
2022-12-29T21:57:37.740Z,11.49
2022-12-29T22:00:27.687Z,11.23
2022-12-29T22:03:22.039Z,10.67
2022-12-29T22:06:08.992Z,10.22
2022-12-29T22:08:53.653Z,10.76
2022-12-29T22:11:38.523Z,10.82
2022-12-29T22:14:06.244Z,11.37
2022-12-29T22:16:34.075Z,11.00
2022-12-29T22:19:00.630Z,11.34
2022-12-29T22:21:27.113Z,11.08
2022-12-29T22:23:53.583Z,10.64
2022-12-29T22:26:20.131Z,10.31
2022-12-29T22:28:47.865Z,10.38
2022-12-29T22:31:27.072Z,10.29
2022-12-29T22:33:57.539Z,10.33
2022-12-29T22:36:25.151Z,10.42
2022-12-29T22:38:52.117Z,10.74
2022-12-29T22:41:19.347Z,10.42
2022-12-29T22:43:45.798Z,10.62
2022-12-29T22:46:12.475Z,10.49
2022-12-29T22:48:38.969Z,10.72
2022-12-29T22:51:05.874Z,10.11
2022-12-29T22:53:32.791Z,10.37
2022-12-29T22:56:08.363Z,11.12
2022-12-29T22:58:34.956Z,10.46
2022-12-29T23:01:01.571Z,10.70
2022-12-29T23:03:28.487Z,11.05
2022-12-29T23:05:56.793Z,11.08
2022-12-29T23:08:23.225Z,10.57
2022-12-29T23:10:49.747Z,10.16
2022-12-29T23:13:16.401Z,10.48
2022-12-29T23:15:42.859Z,10.75
2022-12-29T23:18:09.329Z,10.40
2022-12-29T23:20:35.888Z,10.88
2022-12-29T23:23:02.307Z,10.48
2022-12-29T23:25:31.823Z,10.49
2022-12-29T23:27:58.225Z,10.29
2022-12-29T23:30:24.635Z,10.28
2022-12-29T23:32:51.028Z,10.71
2022-12-29T23:35:17.514Z,10.27
2022-12-29T23:37:43.940Z,10.30
2022-12-29T23:40:11.028Z,10.55
2022-12-29T23:42:37.648Z,10.89
2022-12-29T23:45:05.447Z,11.03
2022-12-29T23:47:32.139Z,10.88
2022-12-29T23:49:58.524Z,10.56
2022-12-29T23:52:25.061Z,10.79
2022-12-29T23:54:51.536Z,10.73
2022-12-29T23:57:17.956Z,10.90
2022-12-29T23:59:44.361Z,10.49
